sensor_id;sensor_type;location;lat;lon;timestamp;temperature;humidity
3408;DHT22;1717;50.240;8.406;2024-01-30T00:01:23;9.70;99.90
3408;DHT22;1717;50.240;8.406;2024-01-30T00:03:50;9.80;99.90
3408;DHT22;1717;50.240;8.406;2024-01-30T00:06:18;9.70;99.90
3408;DHT22;1717;50.240;8.406;2024-01-30T00:08:46;9.80;99.90
3408;DHT22;1717;50.240;8.406;2024-01-30T00:11:16;9.80;99.90
3408;DHT22;1717;50.240;8.406;2024-01-30T00:13:43;9.70;99.90
3408;DHT22;1717;50.240;8.406;2024-01-30T00:16:20;9.70;99.90
3408;DHT22;1717;50.240;8.406;2024-01-30T00:18:47;9.70;99.90
3408;DHT22;1717;50.240;8.406;2024-01-30T00:21:14;9.70;99.90
3408;DHT22;1717;50.240;8.406;2024-01-30T00:23:41;9.70;99.90
3408;DHT22;1717;50.240;8.406;2024-01-30T00:26:08;9.70;99.90
3408;DHT22;1717;50.240;8.406;2024-01-30T00:28:36;9.70;99.90
3408;DHT22;1717;50.240;8.406;2024-01-30T00:31:03;9.60;99.90
3408;DHT22;1717;50.240;8.406;2024-01-30T00:33:30;9.60;99.90
3408;DHT22;1717;50.240;8.406;2024-01-30T00:35:57;9.80;99.90
3408;DHT22;1717;50.240;8.406;2024-01-30T00:38:23;9.70;99.90
3408;DHT22;1717;50.240;8.406;2024-01-30T00:40:50;9.70;99.90
3408;DHT22;1717;50.240;8.406;2024-01-30T00:43:18;9.70;99.90
3408;DHT22;1717;50.240;8.406;2024-01-30T00:45:48;9.60;99.90
3408;DHT22;1717;50.240;8.406;2024-01-30T00:48:16;9.60;99.90
3408;DHT22;1717;50.240;8.406;2024-01-30T00:50:43;9.60;99.90
3408;DHT22;1717;50.240;8.406;2024-01-30T00:53:09;9.60;99.90
3408;DHT22;1717;50.240;8.406;2024-01-30T00:55:36;9.50;99.90
3408;DHT22;1717;50.240;8.406;2024-01-30T00:58:03;9.30;99.90
3408;DHT22;1717;50.240;8.406;2024-01-30T01:00:30;9.40;99.90
3408;DHT22;1717;50.240;8.406;2024-01-30T01:02:59;9.40;99.90
3408;DHT22;1717;50.240;8.406;2024-01-30T01:05:26;9.40;99.90
3408;DHT22;1717;50.240;8.406;2024-01-30T01:07:52;9.40;99.90
3408;DHT22;1717;50.240;8.406;2024-01-30T01:10:19;9.30;99.90
3408;DHT22;1717;50.240;8.406;2024-01-30T01:12:48;9.40;99.90
3408;DHT22;1717;50.240;8.406;2024-01-30T01:15:15;9.40;99.90
3408;DHT22;1717;50.240;8.406;2024-01-30T01:17:42;9.30;99.90
3408;DHT22;1717;50.240;8.406;2024-01-30T01:20:10;9.30;99.90
3408;DHT22;1717;50.240;8.406;2024-01-30T01:22:38;9.30;99.90
3408;DHT22;1717;50.240;8.406;2024-01-30T01:25:06;9.30;99.90
3408;DHT22;1717;50.240;8.406;2024-01-30T01:27:33;9.40;99.90
3408;DHT22;1717;50.240;8.406;2024-01-30T01:30:07;9.40;99.90
3408;DHT22;1717;50.240;8.406;2024-01-30T01:32:35;9.30;99.90
3408;DHT22;1717;50.240;8.406;2024-01-30T01:35:02;9.40;99.90
3408;DHT22;1717;50.240;8.406;2024-01-30T01:37:32;9.40;99.90
3408;DHT22;1717;50.240;8.406;2024-01-30T01:39:59;9.30;99.90
3408;DHT22;1717;50.240;8.406;2024-01-30T01:42:26;9.30;99.90
3408;DHT22;1717;50.240;8.406;2024-01-30T01:44:53;9.30;99.90
3408;DHT22;1717;50.240;8.406;2024-01-30T01:47:20;9.40;99.90
3408;DHT22;1717;50.240;8.406;2024-01-30T01:49:47;9.40;99.90
3408;DHT22;1717;50.240;8.406;2024-01-30T01:52:14;9.30;99.90
3408;DHT22;1717;50.240;8.406;2024-01-30T01:54:42;9.30;99.90
3408;DHT22;1717;50.240;8.406;2024-01-30T01:57:09;9.50;99.90
3408;DHT22;1717;50.240;8.406;2024-01-30T01:59:36;9.40;99.90
3408;DHT22;1717;50.240;8.406;2024-01-30T02:02:04;9.30;99.90
3408;DHT22;1717;50.240;8.406;2024-01-30T02:04:34;9.30;99.90
3408;DHT22;1717;50.240;8.406;2024-01-30T02:07:01;9.30;99.90
3408;DHT22;1717;50.240;8.406;2024-01-30T02:09:27;9.40;99.90
3408;DHT22;1717;50.240;8.406;2024-01-30T02:11:56;9.30;99.90
3408;DHT22;1717;50.240;8.406;2024-01-30T02:14:22;9.40;99.90
3408;DHT22;1717;50.240;8.406;2024-01-30T02:16:49;9.40;99.90
3408;DHT22;1717;50.240;8.406;2024-01-30T02:19:16;9.30;99.90
3408;DHT22;1717;50.240;8.406;2024-01-30T02:21:45;9.30;99.90
3408;DHT22;1717;50.240;8.406;2024-01-30T02:24:12;9.30;99.90
3408;DHT22;1717;50.240;8.406;2024-01-30T02:26:39;9.30;99.90
3408;DHT22;1717;50.240;8.406;2024-01-30T02:29:06;9.30;99.90
3408;DHT22;1717;50.240;8.406;2024-01-30T02:31:33;9.20;99.90
3408;DHT22;1717;50.240;8.406;2024-01-30T02:33:59;9.30;99.90
3408;DHT22;1717;50.240;8.406;2024-01-30T02:36:26;9.30;99.90
3408;DHT22;1717;50.240;8.406;2024-01-30T02:38:54;9.30;99.90
3408;DHT22;1717;50.240;8.406;2024-01-30T02:41:21;9.20;99.90
3408;DHT22;1717;50.240;8.406;2024-01-30T02:43:48;9.10;99.90
3408;DHT22;1717;50.240;8.406;2024-01-30T02:46:15;9.20;99.90
3408;DHT22;1717;50.240;8.406;2024-01-30T02:48:41;9.20;99.90
3408;DHT22;1717;50.240;8.406;2024-01-30T02:51:08;9.10;99.90
3408;DHT22;1717;50.240;8.406;2024-01-30T02:53:35;9.10;99.90
3408;DHT22;1717;50.240;8.406;2024-01-30T02:56:04;9.20;99.90
3408;DHT22;1717;50.240;8.406;2024-01-30T02:58:31;9.10;99.90
3408;DHT22;1717;50.240;8.406;2024-01-30T03:00:58;9.10;99.90
3408;DHT22;1717;50.240;8.406;2024-01-30T03:03:25;9.10;99.90
3408;DHT22;1717;50.240;8.406;2024-01-30T03:05:51;9.10;99.90
3408;DHT22;1717;50.240;8.406;2024-01-30T03:08:18;9.10;99.90
3408;DHT22;1717;50.240;8.406;2024-01-30T03:10:45;9.10;99.90
3408;DHT22;1717;50.240;8.406;2024-01-30T03:13:13;9.00;99.90
3408;DHT22;1717;50.240;8.406;2024-01-30T03:15:40;9.00;99.90
3408;DHT22;1717;50.240;8.406;2024-01-30T03:18:07;9.00;99.90
3408;DHT22;1717;50.240;8.406;2024-01-30T03:20:34;8.90;99.90
3408;DHT22;1717;50.240;8.406;2024-01-30T03:23:01;9.00;99.90
3408;DHT22;1717;50.240;8.406;2024-01-30T03:25:28;8.90;99.90
3408;DHT22;1717;50.240;8.406;2024-01-30T03:27:55;8.90;99.90
3408;DHT22;1717;50.240;8.406;2024-01-30T03:30:23;8.90;99.90
3408;DHT22;1717;50.240;8.406;2024-01-30T03:32:50;8.90;99.90
3408;DHT22;1717;50.240;8.406;2024-01-30T03:35:18;8.80;99.90
3408;DHT22;1717;50.240;8.406;2024-01-30T03:37:45;8.70;99.90
3408;DHT22;1717;50.240;8.406;2024-01-30T03:40:12;8.70;99.90
3408;DHT22;1717;50.240;8.406;2024-01-30T03:42:39;8.50;99.90
3408;DHT22;1717;50.240;8.406;2024-01-30T03:45:07;8.60;99.90
3408;DHT22;1717;50.240;8.406;2024-01-30T03:47:35;8.50;99.90
3408;DHT22;1717;50.240;8.406;2024-01-30T03:50:02;8.50;99.90
3408;DHT22;1717;50.240;8.406;2024-01-30T03:52:30;8.50;99.90
3408;DHT22;1717;50.240;8.406;2024-01-30T03:54:57;8.40;99.90
3408;DHT22;1717;50.240;8.406;2024-01-30T03:57:23;8.40;99.90
3408;DHT22;1717;50.240;8.406;2024-01-30T03:59:50;8.40;99.90
3408;DHT22;1717;50.240;8.406;2024-01-30T04:02:17;8.40;99.90
3408;DHT22;1717;50.240;8.406;2024-01-30T04:04:45;8.40;99.90
3408;DHT22;1717;50.240;8.406;2024-01-30T04:07:12;8.40;99.90
3408;DHT22;1717;50.240;8.406;2024-01-30T04:09:39;8.50;99.90
3408;DHT22;1717;50.240;8.406;2024-01-30T04:12:06;8.40;99.90
3408;DHT22;1717;50.240;8.406;2024-01-30T04:14:33;8.40;99.90
3408;DHT22;1717;50.240;8.406;2024-01-30T04:17:01;8.40;99.90
3408;DHT22;1717;50.240;8.406;2024-01-30T04:19:27;8.40;99.90
3408;DHT22;1717;50.240;8.406;2024-01-30T04:21:55;8.30;99.90
3408;DHT22;1717;50.240;8.406;2024-01-30T04:24:22;8.20;99.90
3408;DHT22;1717;50.240;8.406;2024-01-30T04:26:49;8.20;99.90
3408;DHT22;1717;50.240;8.406;2024-01-30T04:29:16;8.20;99.90
3408;DHT22;1717;50.240;8.406;2024-01-30T04:31:43;8.20;99.90
3408;DHT22;1717;50.240;8.406;2024-01-30T04:34:09;8.20;99.90
3408;DHT22;1717;50.240;8.406;2024-01-30T04:36:36;8.20;99.90
3408;DHT22;1717;50.240;8.406;2024-01-30T04:39:04;8.20;99.90
3408;DHT22;1717;50.240;8.406;2024-01-30T04:41:31;8.20;99.90
3408;DHT22;1717;50.240;8.406;2024-01-30T04:43:58;8.20;99.90
3408;DHT22;1717;50.240;8.406;2024-01-30T04:46:25;8.20;99.90
3408;DHT22;1717;50.240;8.406;2024-01-30T04:48:52;8.20;99.90
3408;DHT22;1717;50.240;8.406;2024-01-30T04:51:18;8.10;99.90
3408;DHT22;1717;50.240;8.406;2024-01-30T04:53:45;8.10;99.90
3408;DHT22;1717;50.240;8.406;2024-01-30T04:56:13;8.10;99.90
3408;DHT22;1717;50.240;8.406;2024-01-30T04:58:40;8.10;99.90
3408;DHT22;1717;50.240;8.406;2024-01-30T05:01:07;8.10;99.90
3408;DHT22;1717;50.240;8.406;2024-01-30T05:03:34;8.10;99.90
3408;DHT22;1717;50.240;8.406;2024-01-30T05:06:01;8.00;99.90
3408;DHT22;1717;50.240;8.406;2024-01-30T05:08:28;8.00;99.90
3408;DHT22;1717;50.240;8.406;2024-01-30T05:10:55;8.00;99.90
3408;DHT22;1717;50.240;8.406;2024-01-30T05:13:23;8.00;99.90
3408;DHT22;1717;50.240;8.406;2024-01-30T05:15:50;8.00;99.90
3408;DHT22;1717;50.240;8.406;2024-01-30T05:18:17;8.00;99.90
3408;DHT22;1717;50.240;8.406;2024-01-30T05:20:43;8.00;99.90
3408;DHT22;1717;50.240;8.406;2024-01-30T05:23:10;8.00;99.90
3408;DHT22;1717;50.240;8.406;2024-01-30T05:25:37;8.00;99.90
3408;DHT22;1717;50.240;8.406;2024-01-30T05:28:04;7.90;99.90
3408;DHT22;1717;50.240;8.406;2024-01-30T05:30:33;7.90;99.90
3408;DHT22;1717;50.240;8.406;2024-01-30T05:33:00;7.90;99.90
3408;DHT22;1717;50.240;8.406;2024-01-30T05:35:26;7.80;99.90
3408;DHT22;1717;50.240;8.406;2024-01-30T05:37:53;7.90;99.90
3408;DHT22;1717;50.240;8.406;2024-01-30T05:40:20;7.90;99.90
3408;DHT22;1717;50.240;8.406;2024-01-30T05:42:47;7.80;99.90
3408;DHT22;1717;50.240;8.406;2024-01-30T05:45:14;7.80;99.90
3408;DHT22;1717;50.240;8.406;2024-01-30T05:47:42;7.90;99.90
3408;DHT22;1717;50.240;8.406;2024-01-30T05:50:09;7.80;99.90
3408;DHT22;1717;50.240;8.406;2024-01-30T05:52:36;7.60;99.90
3408;DHT22;1717;50.240;8.406;2024-01-30T05:55:03;7.80;99.90
3408;DHT22;1717;50.240;8.406;2024-01-30T05:57:31;7.80;99.90
3408;DHT22;1717;50.240;8.406;2024-01-30T05:59:58;7.90;99.90
3408;DHT22;1717;50.240;8.406;2024-01-30T06:02:24;7.80;99.90
3408;DHT22;1717;50.240;8.406;2024-01-30T06:04:53;7.90;99.90
3408;DHT22;1717;50.240;8.406;2024-01-30T06:07:19;7.90;99.90
3408;DHT22;1717;50.240;8.406;2024-01-30T06:09:47;7.90;99.90
3408;DHT22;1717;50.240;8.406;2024-01-30T06:12:14;7.90;99.90
3408;DHT22;1717;50.240;8.406;2024-01-30T06:14:41;7.90;99.90
3408;DHT22;1717;50.240;8.406;2024-01-30T06:17:08;7.90;99.90
3408;DHT22;1717;50.240;8.406;2024-01-30T06:19:35;7.90;99.90
3408;DHT22;1717;50.240;8.406;2024-01-30T06:22:05;7.90;99.90
3408;DHT22;1717;50.240;8.406;2024-01-30T06:24:31;7.90;99.90
3408;DHT22;1717;50.240;8.406;2024-01-30T06:26:59;7.80;99.90
3408;DHT22;1717;50.240;8.406;2024-01-30T06:29:26;7.90;99.90
3408;DHT22;1717;50.240;8.406;2024-01-30T06:31:53;7.80;99.90
3408;DHT22;1717;50.240;8.406;2024-01-30T06:34:20;7.80;99.90
3408;DHT22;1717;50.240;8.406;2024-01-30T06:36:46;7.80;99.90
3408;DHT22;1717;50.240;8.406;2024-01-30T06:39:14;7.70;99.90
3408;DHT22;1717;50.240;8.406;2024-01-30T06:41:41;7.70;99.90
3408;DHT22;1717;50.240;8.406;2024-01-30T06:44:08;7.60;99.90
3408;DHT22;1717;50.240;8.406;2024-01-30T06:46:35;7.60;99.90
3408;DHT22;1717;50.240;8.406;2024-01-30T06:49:02;7.60;99.90
3408;DHT22;1717;50.240;8.406;2024-01-30T06:51:29;7.50;99.90
3408;DHT22;1717;50.240;8.406;2024-01-30T06:53:56;7.60;99.90
3408;DHT22;1717;50.240;8.406;2024-01-30T06:56:24;7.60;99.90
3408;DHT22;1717;50.240;8.406;2024-01-30T06:58:51;7.60;99.90
3408;DHT22;1717;50.240;8.406;2024-01-30T07:01:18;7.60;99.90
3408;DHT22;1717;50.240;8.406;2024-01-30T07:03:44;7.60;99.90
3408;DHT22;1717;50.240;8.406;2024-01-30T07:06:11;7.70;99.90
3408;DHT22;1717;50.240;8.406;2024-01-30T07:08:38;7.60;99.90
3408;DHT22;1717;50.240;8.406;2024-01-30T07:11:05;7.60;99.90
3408;DHT22;1717;50.240;8.406;2024-01-30T07:13:34;7.60;99.90
3408;DHT22;1717;50.240;8.406;2024-01-30T07:16:01;7.60;99.90
3408;DHT22;1717;50.240;8.406;2024-01-30T07:18:27;7.60;99.90
3408;DHT22;1717;50.240;8.406;2024-01-30T07:20:54;7.60;99.90
3408;DHT22;1717;50.240;8.406;2024-01-30T07:23:21;7.60;99.90
3408;DHT22;1717;50.240;8.406;2024-01-30T07:25:48;7.60;99.90
3408;DHT22;1717;50.240;8.406;2024-01-30T07:28:15;7.50;99.90
3408;DHT22;1717;50.240;8.406;2024-01-30T07:30:44;7.60;99.90
3408;DHT22;1717;50.240;8.406;2024-01-30T07:33:11;7.60;99.90
3408;DHT22;1717;50.240;8.406;2024-01-30T07:35:38;7.60;99.90
3408;DHT22;1717;50.240;8.406;2024-01-30T07:38:05;7.60;99.90
3408;DHT22;1717;50.240;8.406;2024-01-30T07:40:32;7.60;99.90
3408;DHT22;1717;50.240;8.406;2024-01-30T07:42:59;7.60;99.90
3408;DHT22;1717;50.240;8.406;2024-01-30T07:45:26;7.60;99.90
3408;DHT22;1717;50.240;8.406;2024-01-30T07:47:59;7.60;99.90
3408;DHT22;1717;50.240;8.406;2024-01-30T07:50:26;7.60;99.90
3408;DHT22;1717;50.240;8.406;2024-01-30T07:52:53;7.60;99.90
3408;DHT22;1717;50.240;8.406;2024-01-30T07:55:20;7.60;99.90
3408;DHT22;1717;50.240;8.406;2024-01-30T07:57:50;7.60;99.90
3408;DHT22;1717;50.240;8.406;2024-01-30T08:00:17;7.60;99.90
3408;DHT22;1717;50.240;8.406;2024-01-30T08:02:45;7.70;99.90
3408;DHT22;1717;50.240;8.406;2024-01-30T08:05:13;7.70;99.90
3408;DHT22;1717;50.240;8.406;2024-01-30T08:07:40;7.80;99.90
3408;DHT22;1717;50.240;8.406;2024-01-30T08:10:08;7.80;99.90
3408;DHT22;1717;50.240;8.406;2024-01-30T08:12:35;7.90;99.90
3408;DHT22;1717;50.240;8.406;2024-01-30T08:15:02;7.90;99.90
3408;DHT22;1717;50.240;8.406;2024-01-30T08:17:29;8.00;99.90
3408;DHT22;1717;50.240;8.406;2024-01-30T08:19:55;8.10;99.90
3408;DHT22;1717;50.240;8.406;2024-01-30T08:22:23;8.20;99.90
3408;DHT22;1717;50.240;8.406;2024-01-30T08:24:50;8.20;99.90
3408;DHT22;1717;50.240;8.406;2024-01-30T08:27:17;8.30;99.90
3408;DHT22;1717;50.240;8.406;2024-01-30T08:29:44;8.30;99.90
3408;DHT22;1717;50.240;8.406;2024-01-30T08:32:11;8.40;99.90
3408;DHT22;1717;50.240;8.406;2024-01-30T08:34:38;8.50;99.90
3408;DHT22;1717;50.240;8.406;2024-01-30T08:37:05;8.60;99.90
3408;DHT22;1717;50.240;8.406;2024-01-30T08:39:33;8.70;99.90
3408;DHT22;1717;50.240;8.406;2024-01-30T08:42:00;8.80;99.90
3408;DHT22;1717;50.240;8.406;2024-01-30T08:44:27;8.80;99.90
3408;DHT22;1717;50.240;8.406;2024-01-30T08:46:54;8.90;99.90
3408;DHT22;1717;50.240;8.406;2024-01-30T08:49:21;9.00;99.90
3408;DHT22;1717;50.240;8.406;2024-01-30T08:51:48;9.10;99.90
3408;DHT22;1717;50.240;8.406;2024-01-30T08:54:15;9.20;99.90
3408;DHT22;1717;50.240;8.406;2024-01-30T08:56:44;9.20;99.90
3408;DHT22;1717;50.240;8.406;2024-01-30T08:59:11;9.40;99.90
3408;DHT22;1717;50.240;8.406;2024-01-30T09:01:38;9.40;99.90
3408;DHT22;1717;50.240;8.406;2024-01-30T09:04:05;9.60;99.90
3408;DHT22;1717;50.240;8.406;2024-01-30T09:06:31;9.60;99.90
3408;DHT22;1717;50.240;8.406;2024-01-30T09:08:58;9.70;99.90
3408;DHT22;1717;50.240;8.406;2024-01-30T09:11:25;9.80;99.90
3408;DHT22;1717;50.240;8.406;2024-01-30T09:13:53;9.90;99.90
3408;DHT22;1717;50.240;8.406;2024-01-30T09:16:20;10.00;99.90
3408;DHT22;1717;50.240;8.406;2024-01-30T09:18:47;10.10;99.90
3408;DHT22;1717;50.240;8.406;2024-01-30T09:21:13;10.10;99.90
3408;DHT22;1717;50.240;8.406;2024-01-30T09:23:40;10.20;99.90
3408;DHT22;1717;50.240;8.406;2024-01-30T09:26:07;10.20;99.90
3408;DHT22;1717;50.240;8.406;2024-01-30T09:28:34;10.30;99.90
3408;DHT22;1717;50.240;8.406;2024-01-30T09:31:03;10.30;99.90
3408;DHT22;1717;50.240;8.406;2024-01-30T09:33:29;10.30;99.90
3408;DHT22;1717;50.240;8.406;2024-01-30T09:35:56;10.30;99.90
3408;DHT22;1717;50.240;8.406;2024-01-30T09:38:23;10.40;99.90
3408;DHT22;1717;50.240;8.406;2024-01-30T09:40:54;10.50;99.90
3408;DHT22;1717;50.240;8.406;2024-01-30T09:43:23;10.60;99.90
3408;DHT22;1717;50.240;8.406;2024-01-30T09:45:50;10.60;99.90
3408;DHT22;1717;50.240;8.406;2024-01-30T09:48:19;10.60;99.90
3408;DHT22;1717;50.240;8.406;2024-01-30T09:50:46;10.80;99.90
3408;DHT22;1717;50.240;8.406;2024-01-30T09:53:13;10.80;99.90
3408;DHT22;1717;50.240;8.406;2024-01-30T09:55:43;10.80;99.90
3408;DHT22;1717;50.240;8.406;2024-01-30T09:58:11;10.90;99.90
3408;DHT22;1717;50.240;8.406;2024-01-30T10:00:38;10.90;99.90
3408;DHT22;1717;50.240;8.406;2024-01-30T10:03:05;10.90;99.90
3408;DHT22;1717;50.240;8.406;2024-01-30T10:05:33;10.90;99.90
3408;DHT22;1717;50.240;8.406;2024-01-30T10:08:06;11.00;99.90
3408;DHT22;1717;50.240;8.406;2024-01-30T10:10:33;11.00;99.90
3408;DHT22;1717;50.240;8.406;2024-01-30T10:13:00;11.00;99.90
3408;DHT22;1717;50.240;8.406;2024-01-30T10:15:28;11.10;99.90
3408;DHT22;1717;50.240;8.406;2024-01-30T10:17:55;11.20;99.90
3408;DHT22;1717;50.240;8.406;2024-01-30T10:20:22;11.20;99.90
3408;DHT22;1717;50.240;8.406;2024-01-30T10:22:52;11.30;99.90
3408;DHT22;1717;50.240;8.406;2024-01-30T10:25:21;11.30;99.90
3408;DHT22;1717;50.240;8.406;2024-01-30T10:27:52;11.30;99.90
3408;DHT22;1717;50.240;8.406;2024-01-30T10:30:20;11.30;99.90
3408;DHT22;1717;50.240;8.406;2024-01-30T10:32:47;11.40;99.90
3408;DHT22;1717;50.240;8.406;2024-01-30T10:35:14;11.30;99.90
3408;DHT22;1717;50.240;8.406;2024-01-30T10:37:43;11.40;99.90
3408;DHT22;1717;50.240;8.406;2024-01-30T10:40:13;11.40;99.90
3408;DHT22;1717;50.240;8.406;2024-01-30T10:42:43;11.40;99.90
3408;DHT22;1717;50.240;8.406;2024-01-30T10:45:11;11.50;99.90
3408;DHT22;1717;50.240;8.406;2024-01-30T10:47:40;11.50;99.90
3408;DHT22;1717;50.240;8.406;2024-01-30T10:50:08;11.50;99.90
3408;DHT22;1717;50.240;8.406;2024-01-30T10:52:36;11.60;99.90
3408;DHT22;1717;50.240;8.406;2024-01-30T10:55:04;11.60;99.90
3408;DHT22;1717;50.240;8.406;2024-01-30T10:57:34;11.60;99.90
3408;DHT22;1717;50.240;8.406;2024-01-30T11:00:04;11.70;99.90
3408;DHT22;1717;50.240;8.406;2024-01-30T11:02:36;11.60;99.90
3408;DHT22;1717;50.240;8.406;2024-01-30T11:05:04;11.60;99.90
3408;DHT22;1717;50.240;8.406;2024-01-30T11:07:32;11.60;99.90
3408;DHT22;1717;50.240;8.406;2024-01-30T11:10:02;11.50;99.90
3408;DHT22;1717;50.240;8.406;2024-01-30T11:12:31;11.60;99.90
3408;DHT22;1717;50.240;8.406;2024-01-30T11:15:08;11.60;99.90
3408;DHT22;1717;50.240;8.406;2024-01-30T11:17:47;11.60;99.90
3408;DHT22;1717;50.240;8.406;2024-01-30T11:20:19;11.60;99.90
3408;DHT22;1717;50.240;8.406;2024-01-30T11:22:48;11.70;99.90
3408;DHT22;1717;50.240;8.406;2024-01-30T11:25:15;11.70;99.90
3408;DHT22;1717;50.240;8.406;2024-01-30T11:27:42;11.50;99.90
3408;DHT22;1717;50.240;8.406;2024-01-30T11:30:21;11.60;99.90
3408;DHT22;1717;50.240;8.406;2024-01-30T11:32:58;11.60;99.90
3408;DHT22;1717;50.240;8.406;2024-01-30T11:35:25;11.70;99.90
3408;DHT22;1717;50.240;8.406;2024-01-30T11:37:52;11.70;99.90
3408;DHT22;1717;50.240;8.406;2024-01-30T11:40:21;11.70;99.90
3408;DHT22;1717;50.240;8.406;2024-01-30T11:42:49;11.70;99.90
3408;DHT22;1717;50.240;8.406;2024-01-30T11:45:17;11.90;99.90
3408;DHT22;1717;50.240;8.406;2024-01-30T11:47:44;11.70;99.90
3408;DHT22;1717;50.240;8.406;2024-01-30T11:50:11;11.80;99.90
3408;DHT22;1717;50.240;8.406;2024-01-30T11:52:38;11.90;99.90
3408;DHT22;1717;50.240;8.406;2024-01-30T11:55:05;11.90;99.90
3408;DHT22;1717;50.240;8.406;2024-01-30T11:57:33;11.90;99.90
3408;DHT22;1717;50.240;8.406;2024-01-30T12:00:00;11.90;99.90
3408;DHT22;1717;50.240;8.406;2024-01-30T12:02:28;11.90;99.90
3408;DHT22;1717;50.240;8.406;2024-01-30T12:04:55;11.80;99.90
3408;DHT22;1717;50.240;8.406;2024-01-30T12:07:22;11.90;99.90
3408;DHT22;1717;50.240;8.406;2024-01-30T12:09:52;11.90;99.90
3408;DHT22;1717;50.240;8.406;2024-01-30T12:12:21;11.90;99.90
3408;DHT22;1717;50.240;8.406;2024-01-30T12:14:49;11.90;99.90
3408;DHT22;1717;50.240;8.406;2024-01-30T12:17:23;11.90;99.90
3408;DHT22;1717;50.240;8.406;2024-01-30T12:20:02;11.90;99.90
3408;DHT22;1717;50.240;8.406;2024-01-30T12:22:30;12.00;99.90
3408;DHT22;1717;50.240;8.406;2024-01-30T12:24:57;11.90;99.90
3408;DHT22;1717;50.240;8.406;2024-01-30T12:27:24;12.00;99.90
3408;DHT22;1717;50.240;8.406;2024-01-30T12:29:56;11.90;99.90
3408;DHT22;1717;50.240;8.406;2024-01-30T12:32:23;12.00;99.90
3408;DHT22;1717;50.240;8.406;2024-01-30T12:34:50;12.00;99.90
3408;DHT22;1717;50.240;8.406;2024-01-30T12:37:18;12.10;99.90
3408;DHT22;1717;50.240;8.406;2024-01-30T12:39:48;12.20;99.90
3408;DHT22;1717;50.240;8.406;2024-01-30T12:42:15;12.30;99.90
3408;DHT22;1717;50.240;8.406;2024-01-30T12:44:42;12.30;99.90
3408;DHT22;1717;50.240;8.406;2024-01-30T12:47:09;12.40;99.90
3408;DHT22;1717;50.240;8.406;2024-01-30T12:49:36;12.40;99.90
3408;DHT22;1717;50.240;8.406;2024-01-30T12:52:03;12.50;99.90
3408;DHT22;1717;50.240;8.406;2024-01-30T12:54:31;12.60;99.90
3408;DHT22;1717;50.240;8.406;2024-01-30T12:56:58;12.60;99.90
3408;DHT22;1717;50.240;8.406;2024-01-30T12:59:25;12.60;99.90
3408;DHT22;1717;50.240;8.406;2024-01-30T13:01:52;12.70;99.90
3408;DHT22;1717;50.240;8.406;2024-01-30T13:04:19;12.70;99.90
3408;DHT22;1717;50.240;8.406;2024-01-30T13:06:46;12.80;99.90
3408;DHT22;1717;50.240;8.406;2024-01-30T13:09:12;12.80;99.90
3408;DHT22;1717;50.240;8.406;2024-01-30T13:11:41;12.80;99.90
3408;DHT22;1717;50.240;8.406;2024-01-30T13:14:07;12.90;99.90
3408;DHT22;1717;50.240;8.406;2024-01-30T13:16:34;12.90;99.90
3408;DHT22;1717;50.240;8.406;2024-01-30T13:19:01;12.90;99.90
3408;DHT22;1717;50.240;8.406;2024-01-30T13:21:29;13.00;99.90
3408;DHT22;1717;50.240;8.406;2024-01-30T13:23:55;13.00;99.90
3408;DHT22;1717;50.240;8.406;2024-01-30T13:26:22;13.00;99.90
3408;DHT22;1717;50.240;8.406;2024-01-30T13:28:50;13.00;99.90
3408;DHT22;1717;50.240;8.406;2024-01-30T13:31:17;13.00;99.90
3408;DHT22;1717;50.240;8.406;2024-01-30T13:33:44;13.00;99.90
3408;DHT22;1717;50.240;8.406;2024-01-30T13:36:12;13.10;99.90
3408;DHT22;1717;50.240;8.406;2024-01-30T13:38:40;13.10;99.90
3408;DHT22;1717;50.240;8.406;2024-01-30T13:41:07;13.20;99.90
3408;DHT22;1717;50.240;8.406;2024-01-30T13:43:34;13.10;99.90
3408;DHT22;1717;50.240;8.406;2024-01-30T13:46:02;13.10;99.90
3408;DHT22;1717;50.240;8.406;2024-01-30T13:48:30;13.10;99.90
3408;DHT22;1717;50.240;8.406;2024-01-30T13:50:57;13.10;99.90
3408;DHT22;1717;50.240;8.406;2024-01-30T13:53:25;13.10;99.90
3408;DHT22;1717;50.240;8.406;2024-01-30T13:55:52;13.10;99.90
3408;DHT22;1717;50.240;8.406;2024-01-30T13:58:18;13.10;99.90
3408;DHT22;1717;50.240;8.406;2024-01-30T14:00:45;13.10;99.90
3408;DHT22;1717;50.240;8.406;2024-01-30T14:03:14;13.00;99.90
3408;DHT22;1717;50.240;8.406;2024-01-30T14:05:40;13.00;99.90
3408;DHT22;1717;50.240;8.406;2024-01-30T14:08:07;13.00;99.90
3408;DHT22;1717;50.240;8.406;2024-01-30T14:10:34;13.10;99.90
3408;DHT22;1717;50.240;8.406;2024-01-30T14:13:01;13.00;99.90
3408;DHT22;1717;50.240;8.406;2024-01-30T14:15:28;13.00;99.90
3408;DHT22;1717;50.240;8.406;2024-01-30T14:17:55;13.00;99.90
3408;DHT22;1717;50.240;8.406;2024-01-30T14:20:23;13.00;99.90
3408;DHT22;1717;50.240;8.406;2024-01-30T14:22:50;13.00;99.90
3408;DHT22;1717;50.240;8.406;2024-01-30T14:25:18;13.00;99.90
3408;DHT22;1717;50.240;8.406;2024-01-30T14:27:45;13.00;99.90
3408;DHT22;1717;50.240;8.406;2024-01-30T14:30:12;13.00;99.90
3408;DHT22;1717;50.240;8.406;2024-01-30T14:32:39;13.00;99.90
3408;DHT22;1717;50.240;8.406;2024-01-30T14:35:08;12.90;99.90
3408;DHT22;1717;50.240;8.406;2024-01-30T14:37:37;12.90;99.90
3408;DHT22;1717;50.240;8.406;2024-01-30T14:40:05;12.90;99.90
3408;DHT22;1717;50.240;8.406;2024-01-30T14:42:33;12.70;99.90
3408;DHT22;1717;50.240;8.406;2024-01-30T14:45:01;12.70;99.90
3408;DHT22;1717;50.240;8.406;2024-01-30T14:47:28;12.70;99.90
3408;DHT22;1717;50.240;8.406;2024-01-30T14:49:56;12.70;99.90
3408;DHT22;1717;50.240;8.406;2024-01-30T14:52:23;12.70;99.90
3408;DHT22;1717;50.240;8.406;2024-01-30T14:54:51;12.80;99.90
3408;DHT22;1717;50.240;8.406;2024-01-30T14:57:18;12.80;99.90
3408;DHT22;1717;50.240;8.406;2024-01-30T14:59:45;12.70;99.90
3408;DHT22;1717;50.240;8.406;2024-01-30T15:02:14;12.70;99.90
3408;DHT22;1717;50.240;8.406;2024-01-30T15:04:41;12.70;99.90
3408;DHT22;1717;50.240;8.406;2024-01-30T15:07:08;12.60;99.90
3408;DHT22;1717;50.240;8.406;2024-01-30T15:09:35;12.60;99.90
3408;DHT22;1717;50.240;8.406;2024-01-30T15:12:04;12.60;99.90
3408;DHT22;1717;50.240;8.406;2024-01-30T15:14:31;12.60;99.90
3408;DHT22;1717;50.240;8.406;2024-01-30T15:16:58;12.60;99.90
3408;DHT22;1717;50.240;8.406;2024-01-30T15:19:25;12.50;99.90
3408;DHT22;1717;50.240;8.406;2024-01-30T15:21:51;12.50;99.90
3408;DHT22;1717;50.240;8.406;2024-01-30T15:24:18;12.40;99.90
3408;DHT22;1717;50.240;8.406;2024-01-30T15:26:49;12.40;99.90
3408;DHT22;1717;50.240;8.406;2024-01-30T15:29:18;12.30;99.90
3408;DHT22;1717;50.240;8.406;2024-01-30T15:31:46;12.30;99.90
3408;DHT22;1717;50.240;8.406;2024-01-30T15:34:13;12.30;99.90
3408;DHT22;1717;50.240;8.406;2024-01-30T15:36:40;12.10;99.90
3408;DHT22;1717;50.240;8.406;2024-01-30T15:39:07;12.10;99.90
3408;DHT22;1717;50.240;8.406;2024-01-30T15:41:35;12.10;99.90
3408;DHT22;1717;50.240;8.406;2024-01-30T15:44:03;12.10;99.90
3408;DHT22;1717;50.240;8.406;2024-01-30T15:46:31;12.10;99.90
3408;DHT22;1717;50.240;8.406;2024-01-30T15:48:58;12.00;99.90
3408;DHT22;1717;50.240;8.406;2024-01-30T15:51:26;12.10;99.90
3408;DHT22;1717;50.240;8.406;2024-01-30T15:53:53;12.10;99.90
3408;DHT22;1717;50.240;8.406;2024-01-30T15:56:20;12.00;99.90
3408;DHT22;1717;50.240;8.406;2024-01-30T15:58:47;12.10;99.90
3408;DHT22;1717;50.240;8.406;2024-01-30T16:01:15;12.10;99.90
3408;DHT22;1717;50.240;8.406;2024-01-30T16:03:44;12.10;99.90
3408;DHT22;1717;50.240;8.406;2024-01-30T16:06:11;12.10;99.90
3408;DHT22;1717;50.240;8.406;2024-01-30T16:08:38;12.10;99.90
3408;DHT22;1717;50.240;8.406;2024-01-30T16:11:06;12.10;99.90
3408;DHT22;1717;50.240;8.406;2024-01-30T16:13:34;12.00;99.90